createdAt,value
2018-06-25T00:00:22.013Z,15.23
2018-06-25T00:01:21.494Z,15.23
2018-06-25T00:03:15.979Z,15.27
2018-06-25T00:04:15.931Z,15.26
2018-06-25T00:06:11.893Z,15.30
2018-06-25T00:07:11.875Z,15.19
2018-06-25T00:09:05.345Z,15.33
2018-06-25T00:10:05.316Z,15.33
2018-06-25T00:12:01.283Z,15.34
2018-06-25T00:13:01.221Z,15.34
2018-06-25T00:14:54.690Z,15.34
2018-06-25T00:15:55.174Z,15.38
2018-06-25T00:17:51.645Z,15.49
2018-06-25T00:18:50.595Z,15.43
2018-06-25T00:20:45.048Z,15.41
2018-06-25T00:21:44.086Z,15.41
2018-06-25T00:23:37.553Z,15.47
2018-06-25T00:24:38.056Z,15.47
2018-06-25T00:26:33.475Z,15.40
2018-06-25T00:27:33.997Z,15.40
2018-06-25T00:29:27.927Z,15.45
2018-06-25T00:30:27.902Z,15.53
2018-06-25T00:32:22.862Z,15.51
2018-06-25T00:33:22.331Z,15.52
2018-06-25T00:35:19.823Z,15.51
2018-06-25T00:36:18.279Z,15.52
2018-06-25T00:38:13.245Z,15.51
2018-06-25T00:39:12.727Z,15.51
2018-06-25T00:41:07.205Z,15.45
2018-06-25T00:42:07.165Z,15.51
2018-06-25T00:44:01.627Z,15.49
2018-06-25T00:45:01.622Z,15.41
2018-06-25T00:46:58.061Z,15.47
2018-06-25T00:47:57.564Z,15.52
2018-06-25T00:49:54.026Z,15.51
2018-06-25T00:50:53.498Z,15.51
2018-06-25T00:52:48.467Z,15.53
2018-06-25T00:53:47.939Z,15.47
2018-06-25T00:55:43.933Z,15.51
2018-06-25T00:56:43.905Z,15.45
2018-06-25T00:58:38.338Z,15.38
2018-06-25T00:59:38.342Z,15.49
2018-06-25T01:01:35.322Z,15.45
2018-06-25T01:02:34.272Z,15.45
2018-06-25T01:04:29.723Z,15.43
2018-06-25T01:05:29.230Z,15.34
2018-06-25T01:07:23.665Z,15.41
2018-06-25T01:08:23.153Z,15.44
2018-06-25T01:10:17.616Z,15.38
2018-06-25T01:11:17.598Z,15.45
2018-06-25T01:13:12.575Z,15.41
2018-06-25T01:14:12.568Z,15.38
2018-06-25T01:16:07.988Z,15.47
2018-06-25T01:17:07.012Z,15.45
2018-06-25T01:19:00.953Z,15.51
2018-06-25T01:20:00.929Z,15.44
2018-06-25T01:21:57.885Z,15.41
2018-06-25T01:22:57.386Z,15.52
2018-06-25T01:24:52.816Z,15.38
2018-06-25T01:25:51.302Z,15.38
2018-06-25T01:27:45.770Z,15.47
2018-06-25T01:28:45.748Z,15.53
2018-06-25T01:30:40.218Z,15.45
2018-06-25T01:31:40.706Z,15.51
2018-06-25T01:33:36.169Z,15.43
2018-06-25T01:34:37.151Z,15.38
2018-06-25T01:36:30.600Z,15.43
2018-06-25T01:37:31.124Z,15.34
2018-06-25T01:39:25.605Z,15.35
2018-06-25T01:40:25.063Z,15.33
2018-06-25T01:42:22.009Z,15.33
2018-06-25T01:43:20.961Z,15.31
2018-06-25T01:45:15.456Z,15.31
2018-06-25T01:46:15.415Z,15.25
2018-06-25T01:48:09.876Z,15.27
2018-06-25T01:49:09.848Z,15.37
2018-06-25T01:51:06.291Z,15.34
2018-06-25T01:52:05.787Z,15.34
2018-06-25T01:54:01.778Z,15.41
2018-06-25T01:55:01.730Z,15.31
2018-06-25T01:56:56.716Z,15.19
2018-06-25T01:57:56.688Z,15.23
2018-06-25T01:59:52.117Z,15.25
2018-06-25T02:00:52.107Z,15.20
2018-06-25T02:02:47.058Z,15.22
2018-06-25T02:03:47.072Z,15.22
2018-06-25T02:05:40.025Z,15.30
2018-06-25T02:06:39.991Z,15.30
2018-06-25T02:08:34.464Z,15.18
2018-06-25T02:09:34.421Z,15.26
2018-06-25T02:11:30.887Z,15.20
2018-06-25T02:12:30.889Z,15.22
2018-06-25T02:14:24.812Z,15.18
2018-06-25T02:15:24.772Z,15.16
2018-06-25T02:17:19.237Z,15.19
2018-06-25T02:18:19.742Z,15.18
2018-06-25T02:20:15.184Z,15.07
2018-06-25T02:21:13.661Z,15.10
2018-06-25T02:23:10.126Z,15.15
2018-06-25T02:24:09.637Z,15.18
2018-06-25T02:26:06.587Z,15.02
2018-06-25T02:27:05.577Z,15.00
2018-06-25T02:29:02.960Z,14.95
2018-06-25T02:30:02.035Z,14.93
2018-06-25T02:31:58.984Z,14.98
2018-06-25T02:32:57.461Z,14.95
2018-06-25T02:34:55.410Z,14.97
2018-06-25T02:35:53.382Z,15.01
2018-06-25T02:37:48.357Z,14.97
2018-06-25T02:38:47.820Z,14.93
2018-06-25T02:40:44.778Z,14.94
2018-06-25T02:41:43.781Z,14.80
2018-06-25T02:43:40.241Z,14.89
2018-06-25T02:44:39.715Z,14.94
2018-06-25T02:46:35.691Z,14.90
2018-06-25T02:47:35.646Z,14.93
2018-06-25T02:49:30.097Z,15.04
2018-06-25T02:50:30.105Z,14.98
2018-06-25T02:52:25.048Z,14.98
2018-06-25T02:53:24.508Z,14.97
2018-06-25T02:55:21.467Z,14.98
2018-06-25T02:56:21.457Z,14.98
2018-06-25T02:58:16.476Z,15.00
2018-06-25T02:59:16.449Z,14.97
2018-06-25T03:01:12.416Z,14.98
2018-06-25T03:02:13.422Z,14.98
2018-06-25T03:04:07.885Z,14.98
2018-06-25T03:05:06.867Z,15.04
2018-06-25T03:07:03.324Z,15.01
2018-06-25T03:08:02.811Z,14.98
2018-06-25T03:09:58.818Z,15.10
2018-06-25T03:10:58.752Z,15.08
2018-06-25T03:12:54.218Z,15.01
2018-06-25T03:13:53.188Z,15.01
2018-06-25T03:15:50.161Z,15.01
2018-06-25T03:16:49.121Z,15.00
2018-06-25T03:18:44.097Z,15.01
2018-06-25T03:19:44.074Z,15.01
2018-06-25T03:21:40.020Z,14.98
2018-06-25T03:22:40.016Z,14.98
2018-06-25T03:24:35.441Z,15.04
2018-06-25T03:25:35.415Z,15.02
2018-06-25T03:27:30.853Z,15.07
2018-06-25T03:28:29.875Z,15.02
2018-06-25T03:30:24.372Z,15.16
2018-06-25T03:31:24.311Z,15.16
2018-06-25T03:33:20.285Z,15.13
2018-06-25T03:34:20.766Z,15.12
2018-06-25T03:36:14.746Z,15.04
2018-06-25T03:37:15.204Z,14.98
2018-06-25T03:39:11.142Z,15.00
2018-06-25T03:40:10.631Z,15.07
2018-06-25T03:42:05.572Z,15.00
2018-06-25T03:43:05.026Z,15.00
2018-06-25T03:44:59.484Z,14.95
2018-06-25T03:45:59.459Z,14.98
2018-06-25T03:47:55.410Z,15.00
2018-06-25T03:48:55.394Z,14.94
2018-06-25T03:50:49.853Z,14.93
2018-06-25T03:51:49.858Z,14.95
2018-06-25T03:53:44.816Z,14.97
2018-06-25T03:54:44.281Z,15.04
2018-06-25T03:56:40.259Z,14.97
2018-06-25T03:57:40.218Z,14.95
2018-06-25T03:59:37.186Z,14.98
2018-06-25T04:00:36.425Z,15.04
2018-06-25T04:02:32.881Z,15.01
2018-06-25T04:03:32.338Z,15.01
2018-06-25T04:05:28.319Z,14.98
2018-06-25T04:06:28.276Z,15.00
2018-06-25T04:08:22.710Z,14.97
2018-06-25T04:09:22.726Z,14.98
2018-06-25T04:11:18.681Z,15.01
2018-06-25T04:12:19.176Z,15.04
2018-06-25T04:14:15.608Z,14.97
2018-06-25T04:15:15.095Z,15.01
2018-06-25T04:17:11.534Z,15.16
2018-06-25T04:18:10.559Z,15.10
2018-06-25T04:20:06.532Z,15.12
2018-06-25T04:21:07.986Z,14.95
2018-06-25T04:23:03.433Z,15.08
2018-06-25T04:24:02.448Z,14.97
2018-06-25T04:25:58.375Z,14.95
2018-06-25T04:26:58.936Z,15.01
2018-06-25T04:28:54.346Z,14.97
2018-06-25T04:29:54.337Z,15.04
2018-06-25T04:31:50.255Z,14.93
2018-06-25T04:32:50.812Z,14.97
2018-06-25T04:34:46.220Z,14.95
2018-06-25T04:35:46.206Z,14.97
2018-06-25T04:37:39.666Z,14.97
2018-06-25T04:38:40.158Z,15.00
2018-06-25T04:40:38.613Z,14.98
2018-06-25T04:41:37.576Z,14.97
2018-06-25T04:43:32.064Z,14.97
2018-06-25T04:44:32.047Z,15.01
2018-06-25T04:46:27.980Z,15.00
2018-06-25T04:47:27.977Z,15.01
2018-06-25T04:49:23.364Z,15.12
2018-06-25T04:50:22.422Z,15.08
2018-06-25T04:52:18.352Z,15.22
2018-06-25T04:53:18.401Z,15.20
2018-06-25T04:55:12.847Z,15.26
2018-06-25T04:56:12.806Z,15.41
2018-06-25T04:58:08.781Z,15.34
2018-06-25T04:59:08.760Z,15.27
2018-06-25T05:01:06.234Z,15.31
2018-06-25T05:02:04.689Z,15.25
2018-06-25T05:03:58.158Z,15.34
2018-06-25T05:04:58.651Z,15.34
2018-06-25T05:06:54.104Z,15.41
2018-06-25T05:07:54.098Z,15.47
2018-06-25T05:09:48.562Z,15.53
2018-06-25T05:10:48.538Z,15.53
2018-06-25T05:12:45.014Z,15.37
2018-06-25T05:13:44.471Z,15.34
2018-06-25T05:15:41.438Z,15.27
2018-06-25T05:16:41.445Z,15.33
2018-06-25T05:18:34.909Z,15.31
2018-06-25T05:19:34.890Z,15.34
2018-06-25T05:21:29.850Z,15.40
2018-06-25T05:22:29.293Z,15.33
2018-06-25T05:24:25.272Z,15.44
2018-06-25T05:25:26.750Z,15.47
2018-06-25T05:27:20.270Z,15.52
2018-06-25T05:28:19.691Z,15.47
2018-06-25T05:30:13.166Z,15.53
2018-06-25T05:31:13.147Z,15.45
2018-06-25T05:33:10.117Z,15.47
2018-06-25T05:34:09.113Z,15.44
2018-06-25T05:36:04.071Z,15.47
2018-06-25T05:37:04.045Z,15.44
2018-06-25T05:38:59.499Z,15.49
2018-06-25T05:39:57.975Z,15.45
2018-06-25T05:41:53.900Z,15.45
2018-06-25T05:42:53.897Z,15.38
2018-06-25T05:44:51.860Z,15.43
2018-06-25T05:45:51.831Z,15.44
2018-06-25T05:47:48.818Z,15.49
2018-06-25T05:48:47.809Z,15.52
2018-06-25T05:50:45.891Z,15.49
2018-06-25T05:51:45.898Z,15.63
2018-06-25T05:53:44.350Z,15.55
2018-06-25T05:54:43.861Z,15.67
2018-06-25T05:56:39.323Z,15.67
2018-06-25T05:57:38.305Z,15.59
2018-06-25T05:59:35.257Z,15.55
2018-06-25T06:00:34.278Z,15.55
2018-06-25T06:02:29.230Z,15.53
2018-06-25T06:03:28.709Z,15.43
2018-06-25T06:05:25.167Z,15.47
2018-06-25T06:06:24.644Z,15.52
2018-06-25T06:08:19.598Z,15.53
2018-06-25T06:09:20.027Z,15.53
2018-06-25T06:11:15.020Z,15.62
2018-06-25T06:12:15.033Z,15.60
2018-06-25T06:14:11.515Z,15.73
2018-06-25T06:15:11.006Z,15.77
2018-06-25T06:17:05.476Z,15.71
2018-06-25T06:18:05.449Z,15.71
2018-06-25T06:20:01.397Z,15.75
2018-06-25T06:21:01.406Z,15.71
2018-06-25T06:22:57.852Z,15.78
2018-06-25T06:23:57.339Z,15.65
2018-06-25T06:25:53.309Z,15.68
2018-06-25T06:26:53.285Z,15.71
2018-06-25T06:28:49.744Z,15.80
2018-06-25T06:29:48.246Z,15.74
2018-06-25T06:31:43.634Z,15.84
2018-06-25T06:32:43.658Z,15.84
2018-06-25T06:34:39.625Z,15.93
2018-06-25T06:35:41.034Z,15.96
2018-06-25T06:37:36.066Z,15.91
2018-06-25T06:38:36.058Z,15.95
2018-06-25T06:40:31.488Z,15.92
2018-06-25T06:41:31.992Z,15.95
2018-06-25T06:43:28.932Z,16.10
2018-06-25T06:44:27.457Z,16.18
2018-06-25T06:46:22.407Z,16.36
2018-06-25T06:47:22.387Z,16.39
2018-06-25T06:49:17.846Z,16.51
2018-06-25T06:50:17.814Z,16.57
2018-06-25T06:52:12.223Z,16.65
2018-06-25T06:53:12.229Z,16.65
2018-06-25T06:55:06.667Z,16.63
2018-06-25T06:56:07.182Z,16.69
2018-06-25T06:58:03.140Z,16.72
2018-06-25T06:59:02.608Z,16.74
2018-06-25T07:00:57.556Z,16.80
2018-06-25T07:01:57.063Z,16.77
2018-06-25T07:03:52.989Z,16.82
2018-06-25T07:04:52.984Z,16.88
2018-06-25T07:06:49.455Z,16.95
2018-06-25T07:07:49.934Z,16.88
2018-06-25T07:09:44.932Z,16.91
2018-06-25T07:10:44.898Z,16.94
2018-06-25T07:12:39.363Z,16.95
2018-06-25T07:13:39.335Z,17.00
2018-06-25T07:15:35.313Z,17.00
2018-06-25T07:16:35.280Z,17.06
2018-06-25T07:18:31.257Z,17.15
2018-06-25T07:19:31.244Z,17.07
2018-06-25T07:21:28.197Z,17.03
2018-06-25T07:22:27.228Z,17.07
2018-06-25T07:24:22.170Z,17.03
2018-06-25T07:25:22.183Z,17.03
2018-06-25T07:27:17.131Z,17.02
2018-06-25T07:28:16.115Z,17.03
2018-06-25T07:30:12.605Z,17.15
2018-06-25T07:31:12.061Z,17.18
2018-06-25T07:33:08.532Z,17.20
2018-06-25T07:34:08.018Z,17.20
2018-06-25T07:36:02.462Z,17.17
2018-06-25T07:37:02.467Z,17.24
2018-06-25T07:38:56.940Z,17.17
2018-06-25T07:39:56.906Z,17.10
2018-06-25T07:41:53.367Z,17.21
2018-06-25T07:42:52.830Z,17.13
2018-06-25T07:44:49.793Z,17.21
2018-06-25T07:45:48.767Z,17.28
2018-06-25T07:47:45.222Z,17.36
2018-06-25T07:48:44.728Z,17.38
2018-06-25T07:50:41.181Z,17.40
2018-06-25T07:51:40.676Z,17.49
2018-06-25T07:53:36.710Z,17.50
2018-06-25T07:54:36.620Z,17.38
2018-06-25T07:56:31.040Z,17.21
2018-06-25T07:57:31.053Z,17.30
2018-06-25T07:59:27.021Z,17.27
2018-06-25T08:00:27.027Z,17.17
2018-06-25T08:02:22.991Z,17.15
2018-06-25T08:03:22.947Z,17.27
2018-06-25T08:05:19.892Z,17.28
2018-06-25T08:06:18.887Z,17.32
2018-06-25T08:08:15.366Z,17.25
2018-06-25T08:09:14.844Z,17.20
2018-06-25T08:11:10.774Z,17.27
2018-06-25T08:12:10.810Z,17.13
2018-06-25T08:14:06.774Z,17.30
2018-06-25T08:15:06.731Z,17.46
2018-06-25T08:17:03.625Z,17.55
2018-06-25T08:18:02.696Z,17.66
2018-06-25T08:19:58.670Z,17.76
2018-06-25T08:20:58.672Z,17.77
2018-06-25T08:22:52.095Z,17.66
2018-06-25T08:23:52.608Z,17.66
2018-06-25T08:25:49.569Z,17.35
2018-06-25T08:26:48.587Z,17.27
2018-06-25T08:28:42.487Z,17.22
2018-06-25T08:29:42.515Z,17.24
2018-06-25T08:31:39.463Z,17.32
2018-06-25T08:32:36.926Z,17.32
2018-06-25T08:34:32.339Z,17.40
2018-06-25T08:35:31.379Z,17.46
2018-06-25T08:37:27.378Z,17.58
2018-06-25T08:38:27.340Z,17.55
2018-06-25T08:40:21.899Z,17.58
2018-06-25T08:41:21.899Z,17.55
2018-06-25T08:43:18.404Z,17.63
2018-06-25T08:44:17.879Z,17.69
2018-06-25T08:46:12.344Z,17.52
2018-06-25T08:47:12.326Z,17.54
2018-06-25T08:49:08.289Z,17.52
2018-06-25T08:50:08.272Z,17.57
2018-06-25T08:52:02.791Z,17.83
2018-06-25T08:53:03.232Z,17.86
2018-06-25T08:54:57.647Z,18.03
2018-06-25T08:55:57.652Z,18.03
2018-06-25T08:57:51.636Z,18.21
2018-06-25T08:58:51.600Z,18.14
2018-06-25T09:00:49.557Z,18.19
2018-06-25T09:01:47.562Z,18.19
2018-06-25T09:03:44.527Z,18.06
2018-06-25T09:04:43.630Z,18.01
2018-06-25T09:06:39.478Z,18.02
2018-06-25T09:07:39.488Z,18.02
2018-06-25T09:09:35.532Z,18.17
2018-06-25T09:10:35.432Z,18.13
2018-06-25T09:12:32.394Z,18.24
2018-06-25T09:13:31.347Z,18.16
2018-06-25T09:15:27.470Z,18.14
2018-06-25T09:16:27.306Z,18.32
2018-06-25T09:18:23.778Z,18.32
2018-06-25T09:19:23.253Z,18.34
2018-06-25T09:21:19.217Z,18.42
2018-06-25T09:22:20.843Z,18.44
2018-06-25T09:24:21.492Z,18.41
2018-06-25T09:25:20.707Z,18.39
2018-06-25T09:27:25.407Z,18.49
2018-06-25T09:28:26.355Z,18.42
2018-06-25T09:30:26.717Z,18.42
2018-06-25T09:31:27.193Z,18.41
2018-06-25T09:33:27.124Z,18.36
2018-06-25T09:34:28.112Z,18.36
2018-06-25T09:36:28.684Z,18.38
2018-06-25T09:37:29.073Z,18.34
2018-06-25T09:39:29.144Z,18.41
2018-06-25T09:40:29.123Z,18.39
2018-06-25T09:42:30.438Z,18.51
2018-06-25T09:43:27.064Z,18.61
2018-06-25T09:45:28.801Z,18.59
2018-06-25T09:46:28.610Z,18.66
2018-06-25T09:48:32.953Z,18.75
2018-06-25T09:49:33.890Z,18.82
2018-06-25T09:51:37.457Z,18.96
2018-06-25T09:52:34.336Z,18.93
2018-06-25T09:54:34.788Z,18.97
2018-06-25T09:55:36.347Z,19.02
2018-06-25T09:57:37.195Z,19.17
2018-06-25T09:58:37.774Z,19.17
2018-06-25T10:00:40.170Z,19.37
2018-06-25T10:01:38.552Z,19.40
2018-06-25T10:03:37.271Z,19.43
2018-06-25T10:04:38.187Z,19.37
2018-06-25T10:06:38.299Z,19.64
2018-06-25T10:07:37.858Z,19.65
2018-06-25T10:09:38.756Z,19.74
2018-06-25T10:10:38.303Z,19.72
2018-06-25T10:12:38.809Z,19.79
2018-06-25T10:13:39.248Z,19.93
2018-06-25T10:15:46.195Z,20.11
2018-06-25T10:16:43.208Z,20.16
2018-06-25T10:18:44.501Z,20.29
2018-06-25T10:19:44.524Z,20.07
2018-06-25T10:21:45.469Z,20.04
2018-06-25T10:22:47.565Z,20.15
2018-06-25T10:24:46.471Z,20.10
2018-06-25T10:25:46.063Z,20.08
2018-06-25T10:27:47.514Z,20.07
2018-06-25T10:28:45.889Z,19.97
2018-06-25T10:30:45.409Z,20.00
2018-06-25T10:31:43.951Z,20.07
2018-06-25T10:33:50.844Z,19.89
2018-06-25T10:34:49.225Z,19.92
2018-06-25T10:36:50.123Z,19.85
2018-06-25T10:37:50.635Z,19.80
2018-06-25T10:39:54.145Z,19.79
2018-06-25T10:40:54.751Z,19.70
2018-06-25T10:42:55.320Z,19.64
2018-06-25T10:43:54.231Z,19.53
2018-06-25T10:45:55.738Z,19.52
2018-06-25T10:46:55.590Z,19.67
2018-06-25T10:48:59.618Z,19.68
2018-06-25T10:49:59.554Z,19.78
2018-06-25T10:52:00.231Z,19.61
2018-06-25T10:53:00.553Z,19.68
2018-06-25T10:54:59.987Z,19.82
2018-06-25T10:56:15.071Z,19.74
2018-06-25T10:58:00.581Z,19.87
2018-06-25T10:58:59.941Z,19.93
2018-06-25T11:01:02.104Z,19.82
2018-06-25T11:02:00.421Z,19.80
2018-06-25T11:04:01.030Z,19.78
2018-06-25T11:05:01.420Z,19.87
2018-06-25T11:06:56.835Z,19.75
2018-06-25T11:07:56.809Z,19.82
2018-06-25T11:09:52.777Z,19.87
2018-06-25T11:10:52.774Z,19.75
2018-06-25T11:12:51.826Z,19.74
2018-06-25T11:13:51.732Z,19.89
2018-06-25T11:16:08.077Z,19.85
2018-06-25T11:16:51.418Z,19.74
2018-06-25T11:18:52.815Z,19.82
2018-06-25T11:19:51.858Z,19.78
2018-06-25T11:21:52.400Z,19.72
2018-06-25T11:22:52.824Z,19.75
2018-06-25T11:24:59.773Z,19.63
2018-06-25T11:27:18.949Z,19.53
2018-06-25T11:28:18.440Z,19.50
2018-06-25T11:30:20.968Z,19.46
2018-06-25T11:31:19.222Z,19.53
2018-06-25T11:33:20.792Z,19.52
2018-06-25T11:34:21.750Z,19.53
2018-06-25T11:36:22.652Z,19.64
2018-06-25T11:37:21.146Z,19.72
2018-06-25T11:39:22.153Z,19.70
2018-06-25T11:40:21.596Z,19.82
2018-06-25T11:42:22.291Z,19.74
2018-06-25T11:43:23.043Z,19.67
2018-06-25T11:45:23.353Z,19.60
2018-06-25T11:46:22.711Z,19.52
2018-06-25T11:48:27.255Z,19.35
2018-06-25T11:49:24.320Z,19.31
2018-06-25T11:51:24.755Z,19.38
2018-06-25T11:52:26.614Z,19.38
2018-06-25T11:54:25.282Z,19.43
2018-06-25T11:55:25.164Z,19.49
2018-06-25T11:57:25.697Z,19.53
2018-06-25T11:58:26.154Z,19.67
2018-06-25T12:00:30.180Z,19.83
2018-06-25T12:01:29.598Z,19.82
2018-06-25T12:03:30.534Z,19.98
2018-06-25T12:04:30.340Z,19.98
2018-06-25T12:06:37.301Z,20.10
2018-06-25T12:07:36.865Z,20.05
2018-06-25T12:09:36.350Z,20.10
2018-06-25T12:10:36.832Z,20.15
2018-06-25T12:12:38.777Z,20.27
2018-06-25T12:13:37.744Z,20.40
2018-06-25T12:15:39.213Z,20.60
2018-06-25T12:16:39.593Z,20.67
2018-06-25T12:18:39.398Z,20.67
2018-06-25T12:19:39.881Z,20.51
2018-06-25T12:21:44.980Z,20.46
2018-06-25T12:22:44.326Z,20.58
2018-06-25T12:24:45.437Z,20.49
2018-06-25T12:25:45.332Z,20.42
2018-06-25T12:27:48.335Z,20.27
2018-06-25T12:28:48.356Z,20.20
2018-06-25T12:30:49.035Z,20.12
2018-06-25T12:31:49.030Z,20.22
2018-06-25T12:33:51.077Z,20.16
2018-06-25T12:34:50.585Z,20.12
2018-06-25T12:36:51.936Z,20.08
2018-06-25T12:37:52.460Z,20.10
2018-06-25T12:39:58.598Z,20.08
2018-06-25T12:40:56.461Z,20.07
2018-06-25T12:42:57.648Z,20.08
2018-06-25T12:43:57.145Z,20.10
2018-06-25T12:46:00.033Z,20.16
2018-06-25T12:47:00.063Z,20.15
2018-06-25T12:49:02.509Z,20.12
2018-06-25T12:50:01.466Z,20.26
2018-06-25T12:52:00.857Z,20.38
2018-06-25T12:53:00.431Z,20.41
2018-06-25T12:55:03.236Z,20.51
2018-06-25T12:56:01.219Z,20.57
2018-06-25T12:58:07.221Z,20.66
2018-06-25T12:59:06.313Z,20.68
2018-06-25T13:01:08.254Z,20.61
2018-06-25T13:02:08.119Z,20.63
2018-06-25T13:04:10.646Z,20.72
2018-06-25T13:05:08.674Z,20.72
2018-06-25T13:07:11.109Z,20.83
2018-06-25T13:08:10.207Z,20.93
2018-06-25T13:10:11.130Z,21.04
2018-06-25T13:11:10.077Z,21.08
2018-06-25T13:13:11.054Z,20.83
2018-06-25T13:14:10.759Z,20.81
2018-06-25T13:22:29.032Z,20.78
2018-06-25T13:23:31.884Z,20.96
2018-06-25T13:26:06.062Z,20.91
2018-06-25T13:28:28.593Z,20.96
2018-06-25T13:29:30.001Z,20.97
2018-06-25T13:31:38.158Z,20.97
2018-06-25T13:32:39.649Z,21.04
2018-06-25T13:34:57.646Z,21.36
2018-06-25T13:35:58.125Z,21.34
2018-06-25T13:37:54.550Z,21.34
2018-06-25T13:38:56.547Z,21.27
2018-06-25T13:40:54.880Z,21.38
2018-06-25T13:41:54.494Z,21.30
2018-06-25T13:43:54.823Z,21.33
2018-06-25T13:44:56.422Z,21.40
2018-06-25T13:46:55.859Z,21.46
2018-06-25T13:47:55.517Z,21.43
2018-06-25T13:49:56.539Z,21.41
2018-06-25T13:50:56.526Z,21.41
2018-06-25T13:52:58.029Z,21.55
2018-06-25T13:53:57.005Z,21.70
2018-06-25T13:55:57.032Z,21.93
2018-06-25T13:56:56.970Z,21.96
2018-06-25T13:58:57.516Z,22.11
2018-06-25T13:59:57.348Z,22.02
2018-06-25T14:01:58.879Z,21.96
2018-06-25T14:02:59.748Z,22.09
2018-06-25T14:05:03.541Z,22.12
2018-06-25T14:06:04.442Z,21.97
2018-06-25T14:08:04.068Z,21.97
2018-06-25T14:09:05.942Z,21.96
2018-06-25T14:11:11.065Z,22.02
2018-06-25T14:12:09.974Z,22.07
2018-06-25T14:14:14.903Z,22.05
2018-06-25T14:16:55.483Z,22.22
2018-06-25T14:17:55.466Z,22.15
2018-06-25T14:19:58.945Z,22.09
2018-06-25T14:20:55.918Z,22.11
2018-06-25T14:22:57.028Z,22.23
2018-06-25T14:23:56.400Z,22.22
2018-06-25T14:25:55.458Z,22.29
2018-06-25T14:26:57.308Z,22.26
2018-06-25T14:28:58.489Z,22.45
2018-06-25T14:29:58.465Z,22.49
2018-06-25T14:31:58.589Z,22.61
2018-06-25T14:32:58.893Z,22.57
2018-06-25T14:34:57.342Z,22.75
2018-06-25T14:35:57.231Z,22.70
2018-06-25T14:38:01.273Z,22.52
2018-06-25T14:39:00.609Z,22.54
2018-06-25T14:41:01.415Z,22.73
2018-06-25T14:42:01.723Z,22.69
2018-06-25T14:44:01.287Z,22.88
2018-06-25T14:45:02.297Z,22.92
2018-06-25T14:47:06.764Z,22.94
2018-06-25T14:48:06.986Z,23.00
2018-06-25T14:50:08.719Z,23.03
2018-06-25T14:51:07.766Z,22.96
2018-06-25T14:53:03.875Z,22.81
2018-06-25T14:54:04.182Z,22.84
2018-06-25T14:56:11.344Z,22.89
2018-06-25T14:57:10.690Z,22.84
2018-06-25T14:59:12.638Z,22.85
2018-06-25T15:00:12.129Z,22.89
2018-06-25T15:02:11.946Z,22.92
2018-06-25T15:03:12.045Z,22.75
2018-06-25T15:05:17.515Z,22.84
2018-06-25T15:06:19.502Z,22.85
2018-06-25T15:08:18.897Z,22.88
2018-06-25T15:09:18.116Z,23.00
2018-06-25T15:11:18.684Z,23.19
2018-06-25T15:12:16.116Z,23.25
2018-06-25T15:14:22.084Z,23.10
2018-06-25T15:15:21.053Z,23.15
2018-06-25T15:17:21.115Z,23.12
2018-06-25T15:18:20.534Z,23.28
2018-06-25T15:20:26.037Z,23.26
2018-06-25T15:21:26.088Z,23.24
2018-06-25T15:23:27.472Z,23.24
2018-06-25T15:24:28.131Z,23.24
2018-06-25T15:26:29.795Z,23.37
2018-06-25T15:27:29.811Z,23.52
2018-06-25T15:29:47.244Z,23.55
2018-06-25T15:30:46.669Z,23.35
2018-06-25T15:32:53.810Z,23.19
2018-06-25T15:35:21.181Z,22.96
2018-06-25T15:37:51.652Z,22.84
2018-06-25T15:38:48.199Z,22.89
2018-06-25T15:40:50.292Z,23.00
2018-06-25T15:41:49.476Z,23.07
2018-06-25T15:43:51.641Z,23.04
2018-06-25T15:44:51.369Z,22.97
2018-06-25T15:46:46.781Z,22.84
2018-06-25T15:49:09.678Z,22.84
2018-06-25T15:50:09.620Z,22.84
2018-06-25T15:52:10.919Z,23.00
2018-06-25T15:53:10.002Z,22.94
2018-06-25T15:55:10.055Z,22.66
2018-06-25T15:56:09.913Z,22.63
2018-06-25T15:58:10.657Z,22.38
2018-06-25T15:59:11.613Z,22.31
2018-06-25T16:01:19.208Z,22.26
2018-06-25T16:02:17.018Z,22.29
2018-06-25T16:04:17.837Z,22.30
2018-06-25T16:05:17.816Z,22.20
2018-06-25T16:07:24.190Z,22.24
2018-06-25T16:08:23.192Z,22.30
2018-06-25T16:10:22.707Z,22.57
2018-06-25T16:11:23.295Z,22.64
2018-06-25T16:13:23.642Z,22.67
2018-06-25T16:14:24.084Z,22.54
2018-06-25T16:16:25.369Z,22.49
2018-06-25T16:17:31.621Z,22.51
2018-06-25T16:19:28.256Z,22.55
2018-06-25T16:20:25.133Z,22.51
2018-06-25T16:22:26.516Z,22.49
2018-06-25T16:23:26.228Z,22.48
2018-06-25T16:26:03.068Z,22.42
2018-06-25T16:26:40.271Z,22.48
2018-06-25T16:28:42.858Z,22.42
2018-06-25T16:29:40.840Z,22.46
2018-06-25T16:31:38.413Z,22.44
2018-06-25T16:34:37.843Z,22.46
2018-06-25T16:35:37.853Z,22.38
2018-06-25T16:38:02.073Z,22.30
2018-06-25T16:39:01.005Z,22.33
2018-06-25T16:41:00.561Z,22.24
2018-06-25T16:42:03.479Z,22.29
2018-06-25T16:44:05.045Z,22.31
2018-06-25T16:45:02.458Z,22.31
2018-06-25T16:47:04.276Z,22.29
2018-06-25T16:48:03.469Z,22.38
2018-06-25T16:50:16.063Z,22.30
2018-06-25T16:51:15.558Z,22.36
2018-06-25T16:53:16.677Z,22.36
2018-06-25T16:54:16.955Z,22.45
2018-06-25T16:56:17.358Z,22.48
2018-06-25T16:57:16.881Z,22.44
2018-06-25T16:59:23.340Z,22.55
2018-06-25T17:00:21.797Z,22.69
2018-06-25T17:02:21.759Z,22.89
2018-06-25T17:03:23.288Z,22.86
2018-06-25T17:05:25.989Z,22.76
2018-06-25T17:06:23.058Z,22.64
2018-06-25T17:08:23.519Z,22.75
2018-06-25T17:10:47.235Z,22.69
2018-06-25T17:11:47.379Z,22.75
2018-06-25T17:13:51.499Z,22.70
2018-06-25T17:16:53.504Z,22.60
2018-06-25T17:17:52.481Z,22.64
2018-06-25T17:19:53.305Z,22.52
2018-06-25T17:20:52.309Z,22.55
2018-06-25T17:22:50.853Z,22.48
2018-06-25T17:23:51.266Z,22.45
2018-06-25T17:25:51.184Z,22.45
2018-06-25T17:26:50.879Z,22.42
2018-06-25T17:28:53.397Z,22.45
2018-06-25T17:29:51.368Z,22.45
2018-06-25T17:31:51.777Z,22.49
2018-06-25T17:32:51.795Z,22.45
2018-06-25T17:34:55.816Z,22.54
2018-06-25T17:35:56.744Z,22.52
2018-06-25T17:37:54.307Z,22.54
2018-06-25T17:38:54.724Z,22.49
2018-06-25T17:40:52.372Z,22.34
2018-06-25T17:41:51.876Z,22.36
2018-06-25T17:43:52.797Z,22.27
2018-06-25T17:44:52.309Z,22.22
2018-06-25T17:46:52.810Z,22.24
2018-06-25T17:47:53.292Z,22.26
2018-06-25T17:49:49.316Z,22.22
2018-06-25T17:50:48.776Z,22.16
2018-06-25T17:52:47.758Z,22.02
2018-06-25T17:53:46.743Z,22.07
2018-06-25T17:55:45.685Z,22.15
2018-06-25T17:56:44.897Z,22.09
2018-06-25T17:58:45.917Z,22.14
2018-06-25T17:59:45.349Z,22.12
2018-06-25T18:01:45.852Z,22.22
2018-06-25T18:02:45.845Z,22.26
2018-06-25T18:04:44.749Z,22.38
2018-06-25T18:05:44.244Z,22.55
2018-06-25T18:07:41.704Z,22.67
2018-06-25T18:08:41.726Z,22.81
2018-06-25T18:10:41.676Z,22.88
2018-06-25T18:11:39.931Z,23.00
2018-06-25T18:13:36.408Z,23.07
2018-06-25T18:14:35.900Z,23.09
2018-06-25T18:16:34.335Z,23.03
2018-06-25T18:17:34.751Z,22.99
2018-06-25T18:19:31.800Z,22.92
2018-06-25T18:20:31.795Z,22.91
2018-06-25T18:22:27.781Z,22.91
2018-06-25T18:23:27.762Z,22.91
2018-06-25T18:25:28.246Z,22.88
2018-06-25T18:26:28.211Z,22.86
2018-06-25T18:28:25.238Z,22.84
2018-06-25T18:29:24.213Z,22.81
2018-06-25T18:31:21.766Z,22.79
2018-06-25T18:34:29.667Z,22.63
2018-06-25T18:36:45.097Z,22.67
2018-06-25T18:37:45.629Z,22.55
2018-06-25T18:39:39.765Z,22.61
2018-06-25T18:40:39.278Z,22.55
2018-06-25T18:42:44.736Z,22.49
2018-06-25T18:43:44.445Z,22.42
2018-06-25T18:45:50.382Z,22.34
2018-06-25T18:46:48.063Z,22.36
2018-06-25T18:48:46.257Z,22.26
2018-06-25T18:49:43.868Z,22.23
2018-06-25T18:51:43.613Z,22.84
2018-06-25T18:52:42.014Z,23.16
2018-06-25T18:54:42.706Z,23.28
2018-06-25T18:55:42.456Z,23.09
2018-06-25T18:57:45.501Z,22.96
2018-06-25T18:58:42.956Z,22.60
2018-06-25T19:00:44.243Z,22.54
2018-06-25T19:01:44.116Z,22.51
2018-06-25T19:03:44.170Z,22.54
2018-06-25T19:04:44.997Z,22.44
2018-06-25T19:07:00.923Z,22.20
2018-06-25T19:08:00.451Z,22.12
2018-06-25T19:10:03.035Z,22.07
2018-06-25T19:10:58.673Z,22.04
2018-06-25T19:13:00.015Z,21.94
2018-06-25T19:14:00.836Z,21.93
2018-06-25T19:15:55.832Z,21.85
2018-06-25T19:18:11.780Z,21.68
2018-06-25T19:19:11.790Z,21.70
2018-06-25T19:21:07.788Z,21.52
2018-06-25T19:22:07.781Z,21.52
2018-06-25T19:24:07.760Z,21.49
2018-06-25T19:25:05.861Z,21.49
2018-06-25T19:27:07.404Z,21.46